KRNTKCLM

Guest
Details From KRNT - Renton Muni
To KCLM - William R Fairchild Intl
Flight Number -
Tags Generated
Created
Modified
Stats Distance 64 nm / 119 km
Max Altitude 0 ft / 0 m
Waypoints 2
Social Downloads 2
Likes 0
Share VATSIM

Download

Looking for another format? Having issues loading an existing format? Contact us
Advertisement - Login to hide

Notes

Generated

Route

KRNT KCLM

ID Type Via Altitude Latitude Longitude Leg Dist Tot Dist Heading (true) Name
O KRNT APT - 0 ft / 0 m 47.50047˚ -122.21685˚ - 0 nm - -
O KCLM APT - 0 ft / 0 m 48.12657˚ -123.50476˚ 64 nm 64 nm 306° / 305° -

Altitude Profile

Advertisement - Login to hide

KRNT

Details ICAO KRNT (RNT)
Name Renton Muni
Region United States
Timezone America/Los_Angeles (UTC-8.0)
Stats Elevation 32 ft / 10 m (AMSL)
Location 47.493133° -122.215743°
Runways 1
Magnetic Variation 15.678° E

METAR

KRNT 130653Z AUTO 00000KT 10SM SCT120 03/01 A3044 RMK AO2 SLP311 T00330006 $

Decode

TAF

Not found

Departure Runways

ID Width Length Bearing (true) Bearing (mag) Surface Threshold Offset Overrun Length
16 200 ft / 61 m 5,384 ft / 1,641 m 174.16° 158.48° Asphalt 299 ft / 91 m 0 ft / 0 m
34 200 ft / 61 m 5,384 ft / 1,641 m 354.17° 338.49° Asphalt 341 ft / 104 m 210 ft / 64 m

KCLM

Details ICAO KCLM (CLM)
Name WILLIAM R FAIRCHILD INTL
Region United States
Timezone America/Los_Angeles (UTC-8.0)
Stats Elevation 291 ft / 89 m (AMSL)
Location 48.120829° -123.500070°
Runways 2
Magnetic Variation 16.053° E

METAR

KCLM 130653Z AUTO 13006KT 10SM FEW027 BKN120 05/04 A3044 RMK AO2 SLP310 T00500044

Decode

TAF

TAF KCLM 130520Z 1306/1406 VRB03KT P6SM BKN200 TEMPO 1306/1310 3SM BR FM131000 23004KT 3SM BR SCT200 FM131800 VRB04KT P6SM SKC

Decode

Destination Runways

ID Width Length Bearing (true) Bearing (mag) Surface Threshold Offset Overrun Length
08 151 ft / 46 m 6,353 ft / 1,936 m 104.61° 88.56° Asphalt 0 ft / 0 m 0 ft / 0 m
13 49 ft / 15 m 3,244 ft / 989 m 147.64° 131.59° Asphalt 0 ft / 0 m 0 ft / 0 m
26 151 ft / 46 m 6,353 ft / 1,936 m 284.63° 268.58° Asphalt 1,355 ft / 413 m 0 ft / 0 m
31 49 ft / 15 m 3,244 ft / 989 m 327.64° 311.59° Asphalt 0 ft / 0 m 0 ft / 0 m

Approach Navaids

Runway Type Ident Frequency Range Bearing (true) Bearing (mag) Slope Elevation
08 Localiser ICLM 108.90 MHz 18 nm / 33 km 104.64° 88.59° - 291 ft / 89 m (AMSL)
08 Glidescope ICLM 108.90 MHz 10 nm / 19 km 104.62° 88.57° 3.00° 281 ft / 86 m (AMSL)